Station Historical Data
 
Daily Summary for August 19, 2017 Units:  English    Metric   Both
« Previous Day
Next Day »
Daily Weekly Monthly Yearly Custom
  Current: High: Low: Average:
Temperature: 54.7 °F 54.7 °F 43.9 °F 47.8 °F
Dew Point: 46.2 °F 46.2 °F 38.0 °F 40.3 °F
Humidity: 73% 82% 64% 75%
Wind Speed: 0.0mph 7.0mph 0.0mph 0.1mph
Wind Gust: 0.0mph 7.2mph - -
WindCalm - - South
Pressure: 30.16 in 30.16 in 30.08 in -
Precipitation: 0.00 in      
Historical Graphs
 
 
Tabular Data for August 19, 2017
Time Temperature Dew Point Pressure Wind Wind Speed Wind Gust Humidity Rainfall Rate (Hourly) solar Conditions
00:00 52.3 °F 40.5 °F 30.08 in Calm     64% 0.00 in 0.0 W/m2 CLR
00:05 52.3 °F 40.9 °F 30.08 in Calm     65% 0.00 in 0.0 W/m2 CLR
00:10 51.6 °F 40.6 °F 30.08 in Calm     66% 0.00 in 0.0 W/m2 CLR
00:15 51.6 °F 41.0 °F 30.09 in Calm     67% 0.00 in 0.0 W/m2 CLR
00:20 51.4 °F 41.2 °F 30.09 in Calm     68% 0.00 in 0.0 W/m2 CLR
00:25 51.1 °F 41.3 °F 30.09 in Calm     69% 0.00 in 0.0 W/m2 CLR
00:30 50.9 °F 41.1 °F 30.08 in Calm     69% 0.00 in 0.0 W/m2 CLR
00:35 50.7 °F 40.9 °F 30.08 in Calm     69% 0.00 in 0.0 W/m2 CLR
00:40 50.7 °F 40.9 °F 30.09 in Calm     69% 0.00 in 0.0 W/m2 CLR
00:45 50.9 °F 41.1 °F 30.09 in Calm     69% 0.00 in 0.0 W/m2 CLR
00:50 51.1 °F 41.3 °F 30.09 in Calm     69% 0.00 in 0.0 W/m2 CLR
00:55 51.1 °F 41.3 °F 30.09 in Calm     69% 0.00 in 0.0 W/m2 CLR
01:00 50.9 °F 41.1 °F 30.09 in Calm     69% 0.00 in 0.0 W/m2 CLR
01:05 50.5 °F 41.1 °F 30.09 in Calm     70% 0.00 in 0.0 W/m2 CLR
01:10 50.4 °F 40.9 °F 30.09 in Calm     70% 0.00 in 0.0 W/m2 CLR
01:15 50.2 °F 40.8 °F 30.09 in Calm     70% 0.00 in 0.0 W/m2 CLR
01:16 49.8 °F 40.4 °F 30.09 in Calm     70% 0.00 in 0.0 W/m2 CLR
01:21 49.6 °F 40.6 °F 30.09 in Calm     71% 0.00 in 0.0 W/m2 CLR
01:26 49.3 °F 40.3 °F 30.09 in Calm     71% 0.00 in 0.0 W/m2 CLR
01:31 49.1 °F 40.1 °F 30.09 in Calm     71% 0.00 in 0.0 W/m2 CLR
01:36 48.9 °F 39.9 °F 30.09 in Calm     71% 0.00 in 0.0 W/m2 CLR
01:41 48.7 °F 40.1 °F 30.09 in Calm     72% 0.00 in 0.0 W/m2 CLR
01:46 48.9 °F 40.3 °F 30.09 in Calm     72% 0.00 in 0.0 W/m2 CLR
01:51 48.7 °F 40.1 °F 30.09 in Calm     72% 0.00 in 0.0 W/m2 CLR
01:56 48.6 °F 39.9 °F 30.10 in Calm     72% 0.00 in 0.0 W/m2 CLR
02:01 48.4 °F 40.1 °F 30.10 in Calm     73% 0.00 in 0.0 W/m2 CLR
02:06 48.4 °F 40.1 °F 30.10 in Calm     73% 0.00 in 0.0 W/m2 CLR
02:11 48.4 °F 40.1 °F 30.10 in Calm     73% 0.00 in 0.0 W/m2 CLR
02:16 48.4 °F 40.1 °F 30.10 in Calm     73% 0.00 in 0.0 W/m2 CLR
02:21 48.2 °F 40.3 °F 30.10 in Calm     74% 0.00 in 0.0 W/m2 CLR
02:26 48.0 °F 40.1 °F 30.10 in Calm     74% 0.00 in 0.0 W/m2 CLR
02:31 48.0 °F 40.5 °F 30.09 in Calm     75% 0.00 in 0.0 W/m2 CLR
02:36 48.0 °F 40.1 °F 30.10 in Calm     74% 0.00 in 0.0 W/m2 CLR
02:41 48.0 °F 40.1 °F 30.10 in Calm     74% 0.00 in 0.0 W/m2 CLR
02:46 48.0 °F 40.1 °F 30.10 in Calm     74% 0.00 in 0.0 W/m2 CLR
02:51 47.8 °F 40.0 °F 30.10 in Calm     74% 0.00 in 0.0 W/m2 CLR
02:56 47.7 °F 39.8 °F 30.10 in Calm   7.2 mph 74% 0.00 in 0.0 W/m2 CLR
03:01 47.7 °F 39.8 °F 30.10 in WSW 7.0 mph 7.2 mph 74% 0.00 in 0.0 W/m2 CLR
03:06 47.8 °F 40.3 °F 30.10 in Calm     75% 0.00 in 0.0 W/m2 CLR
03:11 47.5 °F 40.3 °F 30.11 in Calm     76% 0.00 in 0.0 W/m2 CLR
03:16 47.5 °F 40.3 °F 30.10 in Calm     76% 0.00 in 0.0 W/m2 CLR
03:21 47.7 °F 40.5 °F 30.10 in Calm     76% 0.00 in 0.0 W/m2 CLR
03:26 47.7 °F 40.1 °F 30.10 in Calm     75% 0.00 in 0.0 W/m2 CLR
03:31 47.8 °F 40.3 °F 30.10 in Calm     75% 0.00 in 0.0 W/m2 CLR
03:36 47.7 °F 40.1 °F 30.11 in Calm     75% 0.00 in 0.0 W/m2 CLR
03:41 47.5 °F 39.9 °F 30.11 in Calm     75% 0.00 in 0.0 W/m2 CLR
03:46 47.1 °F 39.6 °F 30.11 in Calm     75% 0.00 in 0.0 W/m2 CLR
03:51 47.1 °F 39.6 °F 30.12 in Calm     75% 0.00 in 0.0 W/m2 CLR
03:56 46.6 °F 39.1 °F 30.12 in Calm     75% 0.00 in 0.0 W/m2 CLR
04:01 46.4 °F 39.2 °F 30.11 in Calm     76% 0.00 in 0.0 W/m2 CLR
04:06 46.4 °F 39.2 °F 30.11 in Calm     76% 0.00 in 0.0 W/m2 CLR
04:11 46.2 °F 39.1 °F 30.11 in Calm     76% 0.00 in 0.0 W/m2 CLR
04:16 46.2 °F 39.1 °F 30.12 in Calm     76% 0.00 in 0.0 W/m2 CLR
04:21 46.2 °F 39.1 °F 30.12 in Calm     76% 0.00 in 0.0 W/m2 CLR
04:26 46.0 °F 38.9 °F 30.12 in Calm     76% 0.00 in 0.0 W/m2 CLR
04:31 45.5 °F 38.7 °F 30.12 in Calm     77% 0.00 in 0.0 W/m2 CLR
04:36 45.3 °F 38.5 °F 30.13 in Calm     77% 0.00 in 0.0 W/m2 CLR
04:41 45.1 °F 38.7 °F 30.12 in Calm     78% 0.00 in 0.0 W/m2 CLR
04:46 45.1 °F 38.7 °F 30.12 in Calm     78% 0.00 in 0.0 W/m2 CLR
04:51 45.0 °F 38.5 °F 30.12 in Calm     78% 0.00 in 0.0 W/m2 CLR
04:56 45.1 °F 38.7 °F 30.13 in Calm     78% 0.00 in 0.0 W/m2 CLR
05:01 44.8 °F 38.3 °F 30.13 in Calm     78% 0.00 in 0.0 W/m2 CLR
05:06 44.2 °F 38.1 °F 30.13 in Calm     79% 0.00 in 0.0 W/m2 CLR
05:09 44.2 °F 38.1 °F 30.13 in Calm     79% 0.00 in 0.0 W/m2 CLR
05:14 44.4 °F 38.3 °F 30.13 in Calm     79% 0.00 in 0.0 W/m2 CLR
05:19 44.4 °F 38.3 °F 30.13 in Calm     79% 0.00 in 0.0 W/m2 CLR
05:24 44.1 °F 38.0 °F 30.13 in Calm     79% 0.00 in 0.0 W/m2 CLR
05:29 43.9 °F 38.1 °F 30.13 in Calm     80% 0.00 in 0.0 W/m2 CLR
05:34 43.9 °F 38.1 °F 30.13 in Calm     80% 0.00 in 0.0 W/m2 CLR
05:39 43.9 °F 38.1 °F 30.14 in Calm     80% 0.00 in 0.0 W/m2 CLR
05:44 44.1 °F 38.3 °F 30.13 in Calm     80% 0.00 in 0.0 W/m2 CLR
05:49 43.9 °F 38.1 °F 30.13 in Calm     80% 0.00 in 0.0 W/m2 CLR
05:54 43.9 °F 38.1 °F 30.13 in Calm     80% 0.00 in 0.0 W/m2 CLR
05:59 43.9 °F 38.1 °F 30.13 in Calm     80% 0.00 in 0.0 W/m2 CLR
06:04 44.2 °F 38.8 °F 30.14 in Calm     81% 0.00 in 0.0 W/m2 CLR
06:09 44.4 °F 39.0 °F 30.14 in Calm     81% 0.00 in 0.0 W/m2 CLR
06:14 44.4 °F 39.0 °F 30.14 in Calm     81% 0.00 in 0.0 W/m2 CLR
06:19 44.4 °F 39.0 °F 30.14 in Calm     81% 0.00 in 0.0 W/m2 CLR
06:24 44.4 °F 39.0 °F 30.14 in Calm     81% 0.00 in 0.0 W/m2 CLR
06:29 45.0 °F 39.8 °F 30.14 in Calm     82% 0.00 in 0.0 W/m2 CLR
06:34 45.5 °F 40.0 °F 30.14 in Calm     81% 0.00 in 0.0 W/m2 CLR
06:39 46.0 °F 40.5 °F 30.15 in Calm     81% 0.00 in 0.0 W/m2 CLR
06:44 46.4 °F 40.9 °F 30.15 in Calm     81% 0.00 in 0.0 W/m2 CLR
06:49 46.9 °F 41.1 °F 30.15 in Calm     80% 0.00 in 0.0 W/m2 CLR
06:54 48.0 °F 42.1 °F 30.15 in Calm     80% 0.00 in 0.0 W/m2 CLR
06:59 48.7 °F 42.8 °F 30.15 in Calm     80% 0.00 in 0.0 W/m2 CLR
07:04 48.9 °F 42.7 °F 30.15 in Calm     79% 0.00 in 0.0 W/m2 CLR
07:09 49.3 °F 43.0 °F 30.14 in ESE 0.1 mph 1.2 mph 79% 0.00 in 0.0 W/m2 CLR
07:14 49.8 °F 43.6 °F 30.15 in Calm     79% 0.00 in 0.0 W/m2 CLR
07:19 50.7 °F 44.4 °F 30.15 in Calm     79% 0.00 in 0.0 W/m2 CLR
07:24 51.6 °F 44.6 °F 30.15 in Calm     77% 0.00 in 0.0 W/m2 CLR
07:29 52.5 °F 45.2 °F 30.16 in Calm     76% 0.00 in 0.0 W/m2 CLR
07:34 53.1 °F 45.7 °F 30.16 in Calm     76% 0.00 in 0.0 W/m2 CLR
07:39 53.8 °F 45.7 °F 30.16 in Calm     74% 0.00 in 0.0 W/m2 CLR
07:44 54.7 °F 46.2 °F 30.16 in Calm     73% 0.00 in 0.0 W/m2 CLR
Fernwood Weather
Compliments of Weather Underground - 2.75 mb